Bookmark and Share
Track history (hours):
 

Fri Langesund

Last reported at 2014-Apr-11 04:19 UTC. Time now 2014-Apr-19 12:05 UTC.
Position N 50°08' W 002°17'.
Warning: this ship's position is 8 days out of date.

Length 90 m; draft 6 m.

Type: Cargo ship. MMSI: 236111779.

NotesDate/timePositionNaut miles runAvg speedWind from/ knotsBaromVisibWave heightAir tempDewpointWater temp
2014-Apr-11 04:19N 50°08' W 002°17'7 9.0
2014-Apr-11 03:33N 50°09' W 002°06'10 9.5
2014-Apr-11 02:32N 50°12' W 001°52'2611.2
2014-Apr-11 00:11N 50°19' W 001°12'812.7
2014-Apr-10 23:33N 50°21' W 001°00'2612.0
2014-Apr-10 21:26N 50°28' W 000°22'1210.7
2014-Apr-10 20:17N 50°32' W 000°03'810.1
2014-Apr-10 19:30N 50°34' E 000°09'9 9.6
2014-Apr-10 18:33N 50°37' E 000°23'10 9.5
2014-Apr-10 17:33N 50°40' E 000°37'1010.2
2014-Apr-10 16:33N 50°46' E 000°50'1111.3
2014-Apr-10 15:33N 50°52' E 001°04'1212.0
2014-Apr-10 14:33N 51°00' E 001°19'1212.0
2014-Apr-10 13:33N 51°08' E 001°34'1110.7
2014-Apr-10 12:34N 51°15' E 001°46'1010.2
2014-Apr-10 11:34N 51°24' E 001°52'9 9.5
2014-Apr-10 10:33N 51°32' E 002°01'10 9.6
2014-Apr-10 09:33N 51°39' E 002°12'10 9.8
2014-Apr-10 08:33N 51°46' E 002°23'10410.5
2014-Apr-09 22:33N 53°06' E 004°14'3310.2
2014-Apr-09 19:19N 53°31' E 004°50'810.3
2014-Apr-09 18:33N 53°35' E 005°01'11 9.7
2014-Apr-09 17:28N 53°39' E 005°18'8 9.3
2014-Apr-09 16:33N 53°41' E 005°32'9 8.7
2014-Apr-09 15:34N 53°44' E 005°45'8 8.3
2014-Apr-09 14:33N 53°46' E 005°59'46 9.2
2014-Apr-09 09:33N 53°58' E 007°14'9 9.5
2014-Apr-09 08:33N 54°00' E 007°30'9 9.4
2014-Apr-09 07:34N 54°02' E 007°45'9 9.1
2014-Apr-09 06:34N 54°01' E 008°01'9 8.7
2014-Apr-09 05:33N 54°00' E 008°16'8 8.0
2014-Apr-09 04:33N 53°59' E 008°29'7 7.4
2014-Apr-09 03:33N 53°56' E 008°40'9 9.1
2014-Apr-09 02:33N 53°51' E 008°53'1111.0
2014-Apr-09 01:34N 53°53' E 009°11'1010.3
2014-Apr-09 00:33N 53°46' E 009°24'1211.8
2014-Apr-08 23:34N 53°36' E 009°35'1211.6
2014-Apr-08 22:33N 53°33' E 009°54'5 4.3
2014-Apr-08 21:29N 53°29' E 009°59'0 0.0
2014-Apr-08 20:32N 53°29' E 009°59'0 0.0
2014-Apr-08 19:32N 53°29' E 009°59'0 0.0
2014-Apr-08 18:32N 53°29' E 009°59'0 0.0
2014-Apr-08 17:32N 53°29' E 009°59'0 0.0
2014-Apr-08 16:29N 53°29' E 009°59'0 0.0
2014-Apr-08 15:32N 53°29' E 009°59'0 0.0
2014-Apr-08 14:32N 53°29' E 009°59'0 0.0
2014-Apr-08 13:29N 53°29' E 009°59'0 0.0
2014-Apr-08 12:29N 53°29' E 009°59'0 0.0
2014-Apr-08 11:29N 53°29' E 009°59'0 0.0
2014-Apr-08 10:32N 53°29' E 009°59'2 1.7
2014-Apr-08 09:33N 53°30' E 009°57'2 1.6
2014-Apr-08 08:31N 53°32' E 009°57'0 0.0
2014-Apr-08 07:31N 53°32' E 009°57'0 0.0
2014-Apr-08 06:31N 53°32' E 009°57'0 0.0
2014-Apr-08 05:31N 53°32' E 009°57'0 0.0
2014-Apr-08 04:31N 53°32' E 009°57'0 0.0
2014-Apr-08 03:31N 53°32' E 009°57'0 0.0
2014-Apr-08 02:31N 53°32' E 009°57'0 0.0
2014-Apr-08 01:31N 53°32' E 009°57'0 0.0
2014-Apr-08 00:31N 53°32' E 009°57'0 0.0
2014-Apr-07 23:31N 53°32' E 009°57'0 0.0
2014-Apr-07 22:31N 53°32' E 009°57'0 0.0
2014-Apr-07 21:31N 53°32' E 009°57'0 0.0
2014-Apr-07 20:31N 53°32' E 009°57'0 0.0
2014-Apr-07 19:31N 53°32' E 009°57'0 0.0
2014-Apr-07 17:28N 53°32' E 009°57'0 0.0
2014-Apr-07 16:31N 53°32' E 009°57'0 0.0
2014-Apr-07 15:31N 53°32' E 009°57'0 0.0
2014-Apr-07 14:28N 53°32' E 009°57'0 0.0
2014-Apr-07 13:31N 53°32' E 009°57'0 0.0
2014-Apr-07 12:28N 53°32' E 009°57'0 0.0
2014-Apr-07 11:19N 53°32' E 009°57'0 0.0
2014-Apr-07 10:31N 53°32' E 009°57'0 0.0
2014-Apr-07 09:31N 53°32' E 009°57'0 0.0
2014-Apr-07 08:31N 53°32' E 009°57'0 0.0
2014-Apr-07 07:28N 53°32' E 009°57'0 0.0
2014-Apr-07 06:28N 53°32' E 009°57'0 0.0
2014-Apr-07 05:31N 53°32' E 009°57'0 0.0
2014-Apr-07 04:31N 53°32' E 009°57'0 0.0
2014-Apr-07 03:28N 53°32' E 009°57'0 0.0
2014-Apr-07 02:28N 53°32' E 009°57'0 0.0
2014-Apr-07 01:28N 53°32' E 009°57'0 0.0
2014-Apr-07 00:31N 53°32' E 009°57'0 0.0
2014-Apr-06 23:31N 53°32' E 009°57'0 0.0
2014-Apr-06 22:28N 53°32' E 009°57'0 0.0
2014-Apr-06 21:28N 53°32' E 009°57'0 0.0
2014-Apr-06 20:28N 53°32' E 009°57'0 0.0
2014-Apr-06 19:31N 53°32' E 009°57'0 0.0
2014-Apr-06 18:28N 53°32' E 009°57'0 0.0
2014-Apr-06 17:28N 53°32' E 009°57'0 0.0
2014-Apr-06 16:28N 53°32' E 009°57'0 0.0
2014-Apr-06 15:28N 53°32' E 009°57'0 0.0
2014-Apr-06 14:28N 53°32' E 009°57'0 0.0
2014-Apr-06 13:31N 53°32' E 009°57'0 0.0
2014-Apr-06 12:31N 53°32' E 009°57'0 0.0
2014-Apr-06 11:31N 53°32' E 009°57'0 0.0
2014-Apr-06 10:31N 53°32' E 009°57'0 0.0
2014-Apr-06 09:28N 53°32' E 009°57'0 0.0
2014-Apr-06 08:31N 53°32' E 009°57'0 0.0
2014-Apr-06 07:28N 53°32' E 009°57'0 0.0
2014-Apr-06 06:31N 53°32' E 009°57'0 0.0
2014-Apr-06 05:28N 53°32' E 009°57'0 0.0
2014-Apr-06 04:31N 53°32' E 009°57'0 0.0
2014-Apr-06 03:28N 53°32' E 009°57'0 0.0
2014-Apr-06 02:31N 53°32' E 009°57'0 0.0
2014-Apr-06 01:31N 53°32' E 009°57'0 0.0
2014-Apr-06 00:28N 53°32' E 009°57'0 0.0
2014-Apr-05 23:31N 53°32' E 009°57'0 0.0
2014-Apr-05 22:28N 53°32' E 009°57'0 0.0
2014-Apr-05 21:31N 53°32' E 009°57'0 0.0
2014-Apr-05 20:31N 53°32' E 009°57'0 0.0
2014-Apr-05 19:28N 53°32' E 009°57'0 0.0
2014-Apr-05 18:31N 53°32' E 009°57'0 0.0
2014-Apr-05 17:31N 53°32' E 009°57'0 0.0
2014-Apr-05 16:31N 53°32' E 009°57'0 0.0
2014-Apr-05 15:28N 53°32' E 009°57'0 0.0
2014-Apr-05 14:28N 53°32' E 009°57'0 0.0
2014-Apr-05 13:31N 53°32' E 009°57'0 0.0
2014-Apr-05 12:31N 53°32' E 009°57'0 0.0
2014-Apr-05 11:31N 53°32' E 009°57'0 0.0
2014-Apr-05 10:31N 53°32' E 009°57'0 0.0
2014-Apr-05 09:31N 53°32' E 009°57'0 0.0
2014-Apr-05 08:31N 53°32' E 009°57'0 0.0
2014-Apr-05 07:31N 53°32' E 009°57'0 0.0
2014-Apr-05 06:28N 53°32' E 009°57'0 0.0
2014-Apr-05 05:31N 53°32' E 009°57'0 0.0
2014-Apr-05 04:31N 53°32' E 009°57'0 0.0
2014-Apr-05 03:28N 53°32' E 009°57'0 0.0
2014-Apr-05 02:31N 53°32' E 009°57'0 0.0
2014-Apr-05 01:31N 53°32' E 009°57'0 0.0
2014-Apr-05 00:31N 53°32' E 009°57'0 0.0
2014-Apr-04 23:28N 53°32' E 009°57'0 0.0
2014-Apr-04 22:28N 53°32' E 009°57'0 0.0
2014-Apr-04 21:28N 53°32' E 009°57'10 5.1
2014-Apr-04 19:33N 53°34' E 009°41'10 9.7
2014-Apr-04 18:33N 53°41' E 009°30'1110.9
2014-Apr-04 17:33N 53°50' E 009°20'1010.1
2014-Apr-04 16:33N 53°52' E 009°04'1111.4
2014-Apr-04 15:33N 53°51' E 008°44'1111.0
2014-Apr-04 14:33N 53°58' E 008°30'1110.8
2014-Apr-04 13:33N 53°59' E 008°11'1111.2
2014-Apr-04 12:33N 53°57' E 007°53'1211.6
2014-Apr-04 11:33N 53°54' E 007°34'1211.8
2014-Apr-04 10:33N 53°51' E 007°14'3511.7
2014-Apr-04 07:33N 53°43' E 006°17'1010.5
2014-Apr-04 06:33N 53°40' E 005°60'1010.0
2014-Apr-04 05:33N 53°37' E 005°44'10 9.7
2014-Apr-04 04:33N 53°33' E 005°28'10 9.5
2014-Apr-04 03:33N 53°30' E 005°13'10 9.5
2014-Apr-04 02:33N 53°27' E 004°58'10 9.8
2014-Apr-04 01:33N 53°23' E 004°43'1210.4
2014-Apr-04 00:27N 53°13' E 004°35'1410.7
2014-Apr-03 23:10N 53°01' E 004°24'1910.8
2014-Apr-03 21:25N 52°44' E 004°08'7111.4
2014-Apr-03 15:12N 51°40' E 003°19'711.2
2014-Apr-03 14:33N 51°34' E 003°25'10 9.6
2014-Apr-03 13:33N 51°26' E 003°34'8 8.3
2014-Apr-03 12:33N 51°22' E 003°45'4 3.6
2014-Apr-03 11:34N 51°20' E 003°49'1 1.2
2014-Apr-03 10:32N 51°18' E 003°50'0 0.0
2014-Apr-03 09:32N 51°18' E 003°50'0 0.0
2014-Apr-03 08:32N 51°18' E 003°50'0 0.0
2014-Apr-03 07:32N 51°18' E 003°50'0 0.0
2014-Apr-03 06:32N 51°18' E 003°50'0 0.0
2014-Apr-03 05:29N 51°18' E 003°50'0 0.0
2014-Apr-03 04:29N 51°18' E 003°50'0 0.0
2014-Apr-03 03:32N 51°18' E 003°50'0 0.0
2014-Apr-03 02:32N 51°18' E 003°50'0 0.0
2014-Apr-03 01:32N 51°18' E 003°50'0 0.0
2014-Apr-03 00:32N 51°18' E 003°50'0 0.0
2014-Apr-02 23:32N 51°18' E 003°50'0 0.0
2014-Apr-02 22:29N 51°18' E 003°50'0 0.0
2014-Apr-02 21:29N 51°18' E 003°50'0 0.0
2014-Apr-02 20:29N 51°18' E 003°50'0 0.0
2014-Apr-02 19:32N 51°18' E 003°50'0 0.0
2014-Apr-02 18:32N 51°18' E 003°50'0 0.0
2014-Apr-02 17:32N 51°18' E 003°50'0 0.0
2014-Apr-02 16:29N 51°18' E 003°50'0 0.0
2014-Apr-02 15:32N 51°18' E 003°50'0 0.0
2014-Apr-02 14:32N 51°18' E 003°50'0 0.0
2014-Apr-02 13:32N 51°18' E 003°50'0 0.0
2014-Apr-02 12:32N 51°18' E 003°50'0 0.0
2014-Apr-02 11:29N 51°18' E 003°50'0 0.0
2014-Apr-02 10:26N 51°18' E 003°50'0 0.0
2014-Apr-02 09:32N 51°18' E 003°50'0 0.0
2014-Apr-02 08:32N 51°18' E 003°50'0 0.0
2014-Apr-02 07:32N 51°18' E 003°50'0 0.0
2014-Apr-02 06:29N 51°18' E 003°50'0 0.0
2014-Apr-02 05:32N 51°18' E 003°50'0 0.0
2014-Apr-02 04:32N 51°18' E 003°50'0 0.0
2014-Apr-02 03:32N 51°18' E 003°50'0 0.0
2014-Apr-02 02:34N 51°18' E 003°50'2 1.9
2014-Apr-02 01:34N 51°20' E 003°49'10 9.5
2014-Apr-02 00:33N 51°25' E 003°36'1111.1
2014-Apr-01 23:33N 51°24' E 003°18'1010.4
2014-Apr-01 22:33N 51°24' E 003°02'9 8.9
2014-Apr-01 21:34N 51°21' E 002°48'8 8.3
2014-Apr-01 20:34N 51°22' E 002°35'8 8.2
2014-Apr-01 19:33N 51°19' E 002°22'9 9.0
2014-Apr-01 18:33N 51°15' E 002°10'10 9.9
2014-Apr-01 17:33N 51°10' E 001°56'1010.4
2014-Apr-01 16:33N 51°03' E 001°43'1211.7
2014-Apr-01 15:33N 50°55' E 001°31'1212.3
2014-Apr-01 14:33N 50°43' E 001°23'2411.8
2014-Apr-01 12:29N 50°27' E 000°55'1111.5
2014-Apr-01 11:33N 50°24' E 000°39'1312.5
2014-Apr-01 10:33N 50°20' E 000°20'1413.5
2014-Apr-01 09:30N 50°17' W 000°01'4912.5
2014-Apr-01 05:33N 50°04' W 001°16'  

Dump ship's entire track history

sailing weather and tide predictions

Fri Langesund — ZDKQ8 — position and weather